Time;durP1;ratioP1;P1;durP2;ratioP2;P2;SDS_P1;SDS_P2;PMS_P1;PMS_P2;Temp;Humidity;BMP_temperature;BMP_pressure;BME280_temperature;BME280_humidity;BME280_pressure;Samples;Min_cycle;Max_cycle;Signal;HPM_P1;HPM_P2
2023/06/15 00:00:35;;;;;;;1.42;1.33;;;25.10;46.10;;;;;;5053201;28;20122;-58
2023/06/15 00:03:02;;;;;;;2.15;1.67;;;25.10;46.10;;;;;;5052945;28;20063;-58
2023/06/15 00:05:30;;;;;;;1.75;1.65;;;25.10;46.10;;;;;;5053330;28;20067;-58
2023/06/15 00:07:57;;;;;;;1.60;1.50;;;25.10;46.00;;;;;;5053042;28;20049;-58
2023/06/15 00:10:24;;;;;;;1.92;1.45;;;25.10;46.10;;;;;;5052700;28;20056;-58
2023/06/15 00:12:52;;;;;;;1.40;1.30;;;25.10;46.00;;;;;;5052891;28;20563;-58
2023/06/15 00:15:19;;;;;;;1.45;1.35;;;25.10;46.00;;;;;;5053161;28;20080;-58
2023/06/15 00:17:46;;;;;;;2.03;1.60;;;25.10;46.00;;;;;;5052865;28;20111;-58
2023/06/15 00:20:14;;;;;;;1.30;1.30;;;25.10;46.10;;;;;;5052901;28;20044;-58
2023/06/15 00:22:45;;;;;;;1.42;1.35;;;25.10;46.00;;;;;;5052930;28;20386;-58
2023/06/15 00:25:13;;;;;;;1.95;1.65;;;25.10;46.00;;;;;;5052387;28;20052;-58
2023/06/15 00:27:40;;;;;;;1.40;1.30;;;25.10;46.00;;;;;;5052162;28;20509;-58
2023/06/15 00:30:10;;;;;;;1.23;1.13;;;25.10;46.10;;;;;;5052918;28;20114;-58
2023/06/15 00:32:37;;;;;;;2.33;1.37;;;25.10;46.10;;;;;;5052632;28;20045;-58
2023/06/15 00:35:05;;;;;;;1.60;1.50;;;25.10;46.10;;;;;;5053195;28;20051;-58
2023/06/15 00:37:32;;;;;;;1.40;1.30;;;25.10;46.10;;;;;;5051962;28;20509;-58
2023/06/15 00:40:00;;;;;;;1.75;1.50;;;25.10;46.10;;;;;;5053065;28;20124;-58
2023/06/15 00:42:30;;;;;;;2.10;1.67;;;25.00;46.60;;;;;;5052595;28;20059;-58
2023/06/15 00:44:57;;;;;;;;;;;25.00;46.10;;;;;;5051714;28;20075;-58
2023/06/15 00:47:24;;;;;;;2.60;1.80;;;25.10;46.20;;;;;;5053141;28;19921;-58
2023/06/15 00:49:51;;;;;;;1.58;1.40;;;25.00;46.10;;;;;;5052533;28;20060;-57
2023/06/15 00:52:20;;;;;;;1.17;1.10;;;25.00;46.10;;;;;;5052848;28;20448;-58
2023/06/15 00:54:48;;;;;;;1.55;1.45;;;25.00;46.20;;;;;;5052813;28;20079;-58
2023/06/15 00:57:15;;;;;;;1.60;1.50;;;25.00;46.20;;;;;;5052839;28;20052;-58
2023/06/15 00:59:43;;;;;;;2.90;1.75;;;25.00;46.20;;;;;;5052815;28;20115;-58
2023/06/15 01:02:12;;;;;;;1.70;1.60;;;25.00;46.30;;;;;;5052708;28;20053;-58
2023/06/15 01:04:40;;;;;;;2.30;2.08;;;25.00;46.30;;;;;;5052400;28;20048;-58
2023/06/15 01:07:10;;;;;;;1.17;1.17;;;25.00;46.30;;;;;;5052134;28;20049;-58
2023/06/15 01:09:41;;;;;;;1.70;1.60;;;25.00;46.30;;;;;;5052703;28;20118;-58
2023/06/15 01:12:14;;;;;;;1.60;1.50;;;25.00;46.30;;;;;;5052330;28;20482;-58
2023/06/15 01:14:41;;;;;;;1.77;1.67;;;24.90;46.20;;;;;;5052502;28;20053;-58
2023/06/15 01:17:13;;;;;;;2.05;1.75;;;24.90;46.20;;;;;;5052306;28;20041;-58
2023/06/15 01:19:53;;;;;;;1.25;1.15;;;24.90;46.30;;;;;;5052447;28;20060;-58
2023/06/15 01:22:45;;;;;;;1.70;1.60;;;24.90;46.30;;;;;;5052136;28;20056;-58
2023/06/15 01:25:33;;;;;;;1.52;1.40;;;25.00;46.30;;;;;;5052679;28;20037;-58
2023/06/15 01:28:03;;;;;;;1.42;1.33;;;24.90;46.40;;;;;;5052328;28;20052;-60
2023/06/15 01:30:44;;;;;;;3.05;1.35;;;24.90;46.30;;;;;;5052078;28;20513;-58
2023/06/15 01:33:12;;;;;;;1.67;1.58;;;24.90;46.40;;;;;;5052582;28;20412;-58
2023/06/15 01:35:39;;;;;;;1.63;1.52;;;24.90;46.40;;;;;;5052232;28;20079;-58
2023/06/15 01:38:07;;;;;;;1.15;1.15;;;24.90;46.40;;;;;;5055026;28;20045;-58
2023/06/15 01:40:38;;;;;;;1.85;1.75;;;24.90;46.40;;;;;;5055921;28;20049;-58
2023/06/15 01:43:11;;;;;;;1.40;1.30;;;24.90;46.40;;;;;;5055464;28;20052;-59
2023/06/15 01:45:44;;;;;;;1.77;1.67;;;24.90;46.40;;;;;;5055826;28;20057;-58
2023/06/15 01:48:12;;;;;;;1.80;1.70;;;24.90;46.40;;;;;;5055609;28;20049;-58
2023/06/15 01:50:40;;;;;;;1.92;1.33;;;24.90;46.40;;;;;;5054846;28;20092;-58
2023/06/15 01:53:08;;;;;;;1.63;1.15;;;24.90;46.50;;;;;;5055801;28;20049;-58
2023/06/15 01:55:35;;;;;;;2.10;1.42;;;24.90;46.50;;;;;;5055636;28;20049;-58
2023/06/15 01:58:03;;;;;;;1.25;1.25;;;24.90;46.50;;;;;;5054122;28;20049;-58
2023/06/15 02:00:30;;;;;;;1.67;1.58;;;24.90;46.50;;;;;;5055546;28;20045;-57
2023/06/15 02:02:57;;;;;;;1.63;1.52;;;24.90;46.50;;;;;;5055512;28;20049;-58
2023/06/15 02:05:25;;;;;;;1.48;1.30;;;24.90;46.50;;;;;;5055432;28;20045;-58
2023/06/15 02:07:52;;;;;;;1.63;1.52;;;24.90;46.50;;;;;;5055171;28;20045;-58
2023/06/15 02:10:19;;;;;;;1.50;1.08;;;24.90;46.50;;;;;;5054911;28;20098;-58
2023/06/15 02:12:46;;;;;;;1.33;1.33;;;24.90;46.50;;;;;;5053796;28;20079;-58
2023/06/15 02:15:14;;;;;;;1.13;1.02;;;24.90;46.50;;;;;;5055156;28;20052;-58
2023/06/15 02:17:42;;;;;;;1.80;1.40;;;24.90;46.40;;;;;;5054857;28;20045;-58
2023/06/15 02:20:11;;;;;;;1.60;1.48;;;25.00;46.50;;;;;;5055344;28;20045;-59
2023/06/15 02:22:39;;;;;;;;;;;24.90;46.40;;;;;;5055207;28;20049;-58
2023/06/15 02:25:07;;;;;;;1.35;1.25;;;24.90;46.40;;;;;;5054898;28;19975;-58
2023/06/15 02:27:35;;;;;;;1.50;1.40;;;24.90;46.40;;;;;;5054189;28;20045;-58
2023/06/15 02:30:02;;;;;;;1.83;1.73;;;24.90;46.40;;;;;;5054853;28;20110;-58
2023/06/15 02:32:35;;;;;;;1.60;1.48;;;24.90;46.40;;;;;;5054664;28;20045;-58
2023/06/15 02:35:05;;;;;;;1.67;1.58;;;24.90;46.40;;;;;;5054619;28;20047;-57
2023/06/15 02:37:32;;;;;;;1.17;1.08;;;24.90;46.40;;;;;;5054647;28;20084;-58
2023/06/15 02:39:59;;;;;;;1.40;1.30;;;24.90;46.40;;;;;;5054653;28;20551;-58
2023/06/15 02:42:27;;;;;;;1.33;1.23;;;24.90;46.40;;;;;;5054355;28;20131;-58
2023/06/15 02:44:54;;;;;;;1.70;1.60;;;24.90;46.40;;;;;;5054657;28;20099;-58
2023/06/15 02:47:22;;;;;;;1.30;1.20;;;24.90;46.40;;;;;;5052984;28;20052;-58
2023/06/15 02:49:50;;;;;;;1.15;1.15;;;24.90;46.40;;;;;;5054617;28;20095;-58
2023/06/15 02:52:17;;;;;;;1.10;1.10;;;24.90;46.40;;;;;;5053172;28;20095;-58
2023/06/15 02:54:45;;;;;;;1.77;1.67;;;24.90;46.40;;;;;;5054236;28;20053;-58
2023/06/15 02:57:12;;;;;;;1.30;1.20;;;24.90;46.40;;;;;;5054704;28;20056;-58
2023/06/15 02:59:40;;;;;;;1.95;1.40;;;24.90;46.40;;;;;;5054293;28;20048;-58
2023/06/15 03:02:08;;;;;;;1.30;1.20;;;24.90;46.40;;;;;;5053977;28;20041;-58
2023/06/15 03:04:44;;;;;;;1.45;1.35;;;24.90;46.40;;;;;;5053107;28;20083;-58
2023/06/15 03:07:16;;;;;;;1.58;1.42;;;24.90;46.40;;;;;;5054278;28;20049;-58
2023/06/15 03:09:47;;;;;;;1.55;1.38;;;24.90;46.40;;;;;;5054214;28;20060;-58
2023/06/15 03:12:15;;;;;;;1.83;1.20;;;24.90;46.40;;;;;;5053652;28;20095;-58
2023/06/15 03:14:50;;;;;;;2.78;1.45;;;24.90;46.40;;;;;;5053739;28;20063;-58
2023/06/15 03:17:18;;;;;;;1.20;1.10;;;24.90;46.40;;;;;;5054110;28;20045;-58
2023/06/15 03:19:49;;;;;;;0.90;0.90;;;24.90;47.00;;;;;;5054194;28;20053;-58
2023/06/15 03:22:16;;;;;;;;;;;24.90;46.40;;;;;;5054154;28;20045;-58
2023/06/15 03:24:44;;;;;;;1.52;1.42;;;24.90;46.40;;;;;;5053580;28;19924;-58
2023/06/15 03:27:11;;;;;;;1.30;1.20;;;24.90;46.40;;;;;;5053436;28;20041;-58
2023/06/15 03:29:39;;;;;;;1.77;1.38;;;24.90;46.40;;;;;;5053558;28;20147;-58
2023/06/15 03:32:07;;;;;;;1.73;1.20;;;24.90;46.50;;;;;;5053813;28;20460;-58
2023/06/15 03:34:35;;;;;;;1.50;1.40;;;24.90;46.40;;;;;;5053923;28;20186;-58
2023/06/15 03:37:03;;;;;;;1.30;1.20;;;25.00;46.40;;;;;;5053449;28;20513;-58
2023/06/15 03:39:31;;;;;;;1.55;1.45;;;24.90;46.30;;;;;;5053405;28;20445;-58
2023/06/15 03:41:58;;;;;;;1.13;1.02;;;24.90;46.30;;;;;;5053064;28;20098;-58
2023/06/15 03:44:25;;;;;;;1.50;1.40;;;25.00;46.30;;;;;;5053167;28;20044;-58
2023/06/15 03:46:53;;;;;;;0.98;0.98;;;25.00;46.30;;;;;;5052817;28;20564;-58
2023/06/15 03:49:20;;;;;;;1.33;1.23;;;25.00;46.30;;;;;;5053187;28;20406;-58
2023/06/15 03:51:47;;;;;;;1.58;1.48;;;25.00;46.30;;;;;;5053566;28;20048;-58
2023/06/15 03:54:14;;;;;;;1.10;1.10;;;25.00;46.30;;;;;;5053488;28;20057;-58
2023/06/15 03:56:42;;;;;;;1.55;1.45;;;25.00;46.30;;;;;;5052072;28;20048;-57
2023/06/15 03:59:09;;;;;;;1.10;1.10;;;25.00;46.20;;;;;;5051810;28;20045;-57
2023/06/15 04:01:36;;;;;;;1.60;1.35;;;25.00;46.20;;;;;;5052928;28;20049;-57
2023/06/15 04:04:03;;;;;;;1.40;1.30;;;25.00;46.10;;;;;;5052925;28;20094;-58
2023/06/15 04:06:32;;;;;;;1.20;1.10;;;25.10;46.20;;;;;;5052277;28;20049;-58
2023/06/15 04:08:59;;;;;;;1.92;1.83;;;25.10;46.20;;;;;;5051572;28;20053;-57
2023/06/15 04:11:27;;;;;;;1.40;1.30;;;25.10;46.10;;;;;;5054532;28;20044;-58
2023/06/15 04:13:54;;;;;;;1.05;1.02;;;25.10;46.10;;;;;;5054497;28;20048;-57
2023/06/15 04:16:21;;;;;;;1.83;1.27;;;25.10;46.10;;;;;;5050975;28;20057;-57
2023/06/15 04:18:48;;;;;;;1.27;1.17;;;25.10;46.00;;;;;;5052090;28;20084;-58
2023/06/15 04:21:16;;;;;;;1.40;1.30;;;25.10;46.00;;;;;;5052642;28;20052;-58
2023/06/15 04:23:43;;;;;;;1.30;1.20;;;25.10;46.00;;;;;;5052282;28;20075;-57
2023/06/15 04:26:11;;;;;;;1.27;1.17;;;25.20;46.00;;;;;;5052234;28;20132;-58
2023/06/15 04:28:38;;;;;;;1.85;1.55;;;25.10;45.90;;;;;;5052105;28;20095;-58
2023/06/15 04:31:21;;;;;;;1.48;1.25;;;25.10;45.90;;;;;;5053570;28;20529;-58
2023/06/15 04:33:48;;;;;;;1.33;1.23;;;25.20;45.90;;;;;;5052460;28;20106;-58
2023/06/15 04:36:16;;;;;;;1.45;1.35;;;25.20;45.90;;;;;;5052501;28;20041;-58
2023/06/15 04:38:48;;;;;;;1.38;1.25;;;25.10;45.90;;;;;;5055833;28;20049;-58
2023/06/15 04:41:21;;;;;;;1.92;1.27;;;25.10;46.10;;;;;;5053089;28;20059;-57
2023/06/15 04:43:49;;;;;;;1.00;1.00;;;24.90;46.30;;;;;;5050186;28;20490;-58
2023/06/15 04:46:17;;;;;;;1.25;1.15;;;24.70;46.60;;;;;;5050279;28;20148;-57
2023/06/15 04:48:44;;;;;;;1.92;1.30;;;24.50;47.10;;;;;;5052816;28;20102;-58
2023/06/15 04:51:12;;;;;;;1.45;1.35;;;24.20;47.60;;;;;;5050787;28;20079;-58
2023/06/15 04:53:43;;;;;;;1.50;1.40;;;23.90;48.10;;;;;;5051414;28;20056;-58
2023/06/15 04:56:11;;;;;;;1.58;1.48;;;23.70;48.60;;;;;;5052142;28;20575;-57
2023/06/15 04:58:38;;;;;;;1.98;1.77;;;23.50;48.60;;;;;;5050951;28;20052;-58
2023/06/15 05:01:06;;;;;;;1.60;1.50;;;23.10;49.00;;;;;;5052184;28;20049;-57
2023/06/15 05:03:34;;;;;;;1.63;1.52;;;22.90;49.80;;;;;;5052013;28;20059;-57
2023/06/15 05:06:02;;;;;;;1.92;1.67;;;22.60;50.40;;;;;;5051610;28;20056;-58
2023/06/15 05:08:29;;;;;;;1.55;1.45;;;22.40;50.50;;;;;;5050302;28;20061;-57
2023/06/15 05:10:57;;;;;;;1.95;1.85;;;22.20;50.80;;;;;;5047195;28;20045;-60
2023/06/15 05:13:25;;;;;;;3.10;1.73;;;22.00;51.40;;;;;;5052298;28;20071;-63
2023/06/15 05:15:54;;;;;;;1.83;1.73;;;21.80;51.40;;;;;;5048115;28;20049;-63
2023/06/15 05:18:23;;;;;;;2.00;1.80;;;21.70;51.30;;;;;;5044803;28;20559;-64
2023/06/15 05:20:50;;;;;;;1.42;1.33;;;21.60;51.90;;;;;;5045156;28;20495;-63
2023/06/15 05:23:20;;;;;;;1.77;1.60;;;21.40;52.30;;;;;;5045786;28;20041;-65
2023/06/15 05:25:48;;;;;;;3.45;2.28;;;21.30;52.00;;;;;;5049427;28;20393;-64
2023/06/15 05:28:16;;;;;;;2.10;2.00;;;21.20;52.40;;;;;;5042073;28;20049;-63
2023/06/15 05:30:43;;;;;;;2.58;2.03;;;21.00;53.10;;;;;;5040946;28;20057;-63
2023/06/15 05:33:10;;;;;;;3.03;1.85;;;21.00;53.20;;;;;;5045973;28;20127;-63
2023/06/15 05:35:38;;;;;;;2.40;2.05;;;20.80;52.30;;;;;;5048420;28;20044;-62
2023/06/15 05:38:05;;;;;;;1.95;1.85;;;20.70;53.30;;;;;;5043740;28;20090;-62
2023/06/15 05:40:32;;;;;;;2.72;1.92;;;20.70;53.90;;;;;;5036733;28;20059;-63
2023/06/15 05:42:59;;;;;;;2.50;2.10;;;20.60;53.90;;;;;;5041001;28;20053;-63
2023/06/15 05:45:27;;;;;;;2.88;1.95;;;20.50;52.50;;;;;;5041816;28;20570;-64
2023/06/15 05:47:55;;;;;;;1.80;1.70;;;20.50;53.60;;;;;;5041917;28;20410;-66
2023/06/15 05:50:22;;;;;;;5.68;2.50;;;20.40;54.30;;;;;;5041760;28;20053;-65
2023/06/15 05:52:50;;;;;;;4.28;2.17;;;20.30;54.20;;;;;;5040964;28;20044;-66
2023/06/15 05:55:17;;;;;;;3.28;2.17;;;20.30;54.50;;;;;;5038703;28;20045;-66
2023/06/15 05:57:45;;;;;;;3.22;2.42;;;20.30;53.70;;;;;;5047716;28;20481;-64
2023/06/15 06:00:14;;;;;;;3.03;2.70;;;20.20;54.20;;;;;;5048591;28;20512;-63
2023/06/15 06:02:41;;;;;;;3.60;2.78;;;20.10;54.60;;;;;;5049368;28;20041;-64
2023/06/15 06:05:09;;;;;;;4.22;2.70;;;20.10;55.40;;;;;;5046395;28;20048;-64
2023/06/15 06:07:36;;;;;;;5.45;2.85;;;20.10;55.30;;;;;;5045774;28;20061;-65
2023/06/15 06:10:04;;;;;;;8.68;3.50;;;20.10;53.80;;;;;;5041024;28;20512;-64
2023/06/15 06:12:32;;;;;;;10.05;3.58;;;20.10;54.40;;;;;;5044868;28;20437;-63
2023/06/15 06:14:59;;;;;;;11.85;3.65;;;20.10;55.00;;;;;;5046506;28;20056;-63
2023/06/15 06:17:27;;;;;;;10.27;3.08;;;20.10;55.10;;;;;;5044420;28;20451;-63
2023/06/15 06:20:15;;;;;;;12.98;3.95;;;20.10;54.60;;;;;;5047261;28;20073;-62
2023/06/15 06:22:43;;;;;;;6.95;3.50;;;20.10;54.70;;;;;;5047862;28;20063;-64
2023/06/15 06:25:11;;;;;;;10.38;3.10;;;20.10;55.10;;;;;;5048708;28;20041;-63
2023/06/15 06:27:38;;;;;;;4.53;3.13;;;20.10;55.30;;;;;;5047750;28;20098;-64
2023/06/15 06:30:06;;;;;;;6.13;3.28;;;20.00;55.10;;;;;;5049155;28;20045;-63
2023/06/15 06:32:33;;;;;;;3.92;2.75;;;20.00;54.30;;;;;;5046857;28;20065;-64
2023/06/15 06:35:01;;;;;;;6.15;3.47;;;20.10;54.90;;;;;;5046650;28;20052;-64
2023/06/15 06:37:29;;;;;;;7.90;3.88;;;20.00;55.40;;;;;;5047592;28;20064;-68
2023/06/15 06:39:56;;;;;;;3.85;3.42;;;20.00;55.70;;;;;;5050030;28;20052;-64
2023/06/15 06:42:24;;;;;;;4.80;3.42;;;20.10;54.60;;;;;;5045062;28;20041;-64
2023/06/15 06:44:51;;;;;;;5.30;3.65;;;20.10;54.70;;;;;;5044838;28;20094;-64
2023/06/15 06:47:18;;;;;;;4.68;3.20;;;20.00;55.60;;;;;;5045526;28;20045;-63
2023/06/15 06:49:45;;;;;;;5.38;3.35;;;20.10;55.00;;;;;;5046371;28;20045;-64
2023/06/15 06:52:13;;;;;;;6.30;3.33;;;20.10;54.10;;;;;;5040672;28;20055;-63
2023/06/15 06:54:40;;;;;;;4.13;3.03;;;20.00;55.30;;;;;;5048013;28;20053;-64
2023/06/15 06:57:07;;;;;;;7.18;2.95;;;20.00;55.50;;;;;;5044028;28;20055;-63
2023/06/15 06:59:36;;;;;;;3.47;2.85;;;20.00;54.80;;;;;;5063644;28;20041;-65
2023/06/15 07:02:12;;;;;;;3.88;3.42;;;20.00;55.00;;;;;;5042883;28;20473;-64
2023/06/15 07:04:40;;;;;;;4.05;3.08;;;20.00;55.50;;;;;;5047035;28;20059;-62
2023/06/15 07:07:07;;;;;;;5.40;3.35;;;20.00;55.30;;;;;;5049731;28;20060;-62
2023/06/15 07:09:34;;;;;;;4.00;3.13;;;20.00;55.20;;;;;;5044617;28;20103;-63
2023/06/15 07:12:02;;;;;;;5.13;3.78;;;20.00;56.10;;;;;;5046887;28;20048;-63
2023/06/15 07:14:29;;;;;;;7.65;3.25;;;20.00;55.40;;;;;;5045386;28;20053;-63
2023/06/15 07:16:56;;;;;;;3.78;3.00;;;20.00;55.20;;;;;;5047755;28;20085;-63
2023/06/15 07:19:23;;;;;;;4.75;3.40;;;20.00;55.90;;;;;;5045786;28;20044;-62
2023/06/15 07:21:51;;;;;;;7.30;3.50;;;20.10;56.20;;;;;;5043001;28;20489;-63
2023/06/15 07:24:18;;;;;;;3.60;3.20;;;20.10;55.00;;;;;;5050468;28;20053;-62
2023/06/15 07:26:46;;;;;;;4.50;3.28;;;20.00;55.30;;;;;;5047715;28;20399;-62
2023/06/15 07:29:13;;;;;;;6.45;3.92;;;20.00;56.90;;;;;;5049078;28;20493;-64
2023/06/15 07:31:40;;;;;;;5.95;4.07;;;20.00;55.40;;;;;;5048023;28;20528;-64
2023/06/15 07:34:07;;;;;;;5.68;4.18;;;20.10;54.90;;;;;;5040878;28;20049;-64
2023/06/15 07:36:35;;;;;;;5.80;3.60;;;20.10;56.00;;;;;;5071873;28;20053;-63
2023/06/15 07:39:02;;;;;;;5.82;3.20;;;20.10;56.40;;;;;;5047793;28;20041;-63
2023/06/15 07:41:29;;;;;;;3.90;3.50;;;20.00;54.90;;;;;;5045955;28;20561;-63
2023/06/15 07:43:56;;;;;;;5.30;3.80;;;20.00;55.60;;;;;;5048128;28;20053;-62
2023/06/15 07:46:25;;;;;;;6.40;3.25;;;20.00;56.60;;;;;;5040314;28;20408;-62
2023/06/15 07:48:52;;;;;;;6.85;3.72;;;20.00;55.60;;;;;;5045075;28;20045;-62
2023/06/15 07:51:19;;;;;;;5.97;3.45;;;19.90;55.40;;;;;;5042553;28;20068;-62
2023/06/15 07:54:05;;;;;;;5.57;3.30;;;19.90;56.60;;;;;;5044188;28;20045;-62
2023/06/15 07:56:33;;;;;;;3.90;3.08;;;19.80;56.30;;;;;;5046167;28;20048;-62
2023/06/15 07:59:00;;;;;;;8.20;3.50;;;19.80;55.60;;;;;;5045274;28;20103;-62
2023/06/15 08:01:27;;;;;;;5.00;2.97;;;19.70;57.00;;;;;;5045549;28;20052;-61
2023/06/15 08:03:54;;;;;;;7.43;3.17;;;19.80;57.50;;;;;;5042338;28;20084;-64
2023/06/15 08:06:22;;;;;;;5.05;3.70;;;19.80;56.00;;;;;;5045281;28;20045;-63
2023/06/15 08:08:49;;;;;;;4.32;3.17;;;19.80;56.70;;;;;;5044186;28;20094;-62
2023/06/15 08:11:17;;;;;;;6.68;3.70;;;19.80;57.20;;;;;;5044884;28;20049;-63
2023/06/15 08:13:44;;;;;;;5.25;3.63;;;19.80;56.90;;;;;;5048056;28;20520;-62
2023/06/15 08:16:11;;;;;;;4.38;2.97;;;19.70;56.10;;;;;;5050410;28;20044;-62
2023/06/15 08:18:38;;;;;;;3.42;2.78;;;19.70;57.10;;;;;;5047985;28;20560;-62
2023/06/15 08:21:06;;;;;;;4.57;3.35;;;19.80;57.10;;;;;;5046384;28;20079;-62
2023/06/15 08:23:34;;;;;;;5.10;3.30;;;19.80;56.40;;;;;;5047676;28;20045;-62
2023/06/15 08:26:01;;;;;;;3.55;3.00;;;19.80;57.50;;;;;;5047535;28;20053;-63
2023/06/15 08:28:28;;;;;;;4.00;3.22;;;19.80;58.00;;;;;;5048276;28;20059;-63
2023/06/15 08:31:04;;;;;;;9.48;3.33;;;19.80;57.20;;;;;;5045440;28;20478;-63
2023/06/15 08:33:31;;;;;;;6.22;3.08;;;19.80;56.70;;;;;;5043728;28;20044;-62
2023/06/15 08:35:59;;;;;;;3.05;2.80;;;19.90;57.40;;;;;;5046650;28;20501;-65
2023/06/15 08:38:26;;;;;;;12.50;3.78;;;19.90;57.10;;;;;;5045669;28;20563;-63
2023/06/15 08:40:53;;;;;;;3.53;2.80;;;19.90;56.40;;;;;;5043714;28;20091;-62
2023/06/15 08:43:24;;;;;;;4.57;2.88;;;19.90;56.60;;;;;;5046085;28;20056;-63
2023/06/15 08:45:56;;;;;;;5.50;3.10;;;20.00;57.30;;;;;;5047403;28;20135;-64
2023/06/15 08:48:25;;;;;;;9.68;3.50;;;20.00;56.60;;;;;;5046028;28;20094;-63
2023/06/15 08:50:53;;;;;;;2.97;2.67;;;20.00;56.50;;;;;;5047900;28;20041;-62
2023/06/15 08:53:22;;;;;;;3.92;3.00;;;20.00;57.40;;;;;;5050351;28;20048;-62
2023/06/15 08:55:50;;;;;;;3.40;3.10;;;20.10;57.60;;;;;;5044355;28;20119;-62
2023/06/15 08:58:17;;;;;;;4.28;2.80;;;20.10;57.10;;;;;;5046787;28;20493;-63
2023/06/15 09:00:44;;;;;;;4.75;2.63;;;20.20;57.10;;;;;;5049068;28;20052;-62
2023/06/15 09:03:14;;;;;;;3.97;3.20;;;20.20;57.20;;;;;;5049118;28;20098;-62
2023/06/15 09:05:42;;;;;;;10.45;4.00;;;20.20;56.80;;;;;;5050913;28;20052;-61
2023/06/15 09:08:10;;;;;;;6.32;3.90;;;20.20;56.50;;;;;;5052223;28;20045;-62
2023/06/15 09:10:38;;;;;;;5.57;3.58;;;20.30;56.40;;;;;;5049239;28;20041;-62
2023/06/15 09:13:05;;;;;;;5.97;3.13;;;20.30;56.10;;;;;;5047143;28;20044;-62
2023/06/15 09:15:36;;;;;;;8.93;2.95;;;20.30;55.80;;;;;;5047994;28;20055;-62
2023/06/15 09:18:03;;;;;;;;;;;20.40;55.90;;;;;;5043824;28;20051;-63
2023/06/15 09:20:36;;;;;;;7.05;3.20;;;20.40;56.10;;;;;;5044074;28;19929;-63
2023/06/15 09:23:05;;;;;;;6.60;2.80;;;20.40;56.30;;;;;;5050112;28;20048;-60
2023/06/15 09:25:33;;;;;;;3.30;2.97;;;20.40;56.30;;;;;;5045878;28;20049;-62
2023/06/15 09:28:06;;;;;;;4.30;3.05;;;20.40;56.10;;;;;;5051357;28;20053;-62
2023/06/15 09:30:41;;;;;;;3.83;3.00;;;20.40;55.50;;;;;;5051506;28;20504;-63
2023/06/15 09:33:12;;;;;;;3.25;2.92;;;20.40;55.60;;;;;;5046973;28;20071;-61
2023/06/15 09:35:59;;;;;;;3.58;2.70;;;20.50;55.60;;;;;;5041707;28;20486;-61
2023/06/15 09:38:41;;;;;;;3.60;3.00;;;20.50;55.20;;;;;;5051149;28;20041;-62
2023/06/15 09:41:09;;;;;;;3.50;3.15;;;20.60;55.20;;;;;;5047181;28;20095;-62
2023/06/15 09:43:39;;;;;;;2.67;2.30;;;20.60;54.90;;;;;;5046821;28;20095;-61
2023/06/15 09:46:16;;;;;;;5.82;2.83;;;20.60;54.80;;;;;;5043611;28;20045;-61
2023/06/15 09:48:45;;;;;;;4.88;2.78;;;20.70;54.60;;;;;;5056918;28;20053;-62
2023/06/15 09:51:15;;;;;;;3.38;2.90;;;20.60;54.60;;;;;;5045220;28;20107;-62
2023/06/15 09:53:43;;;;;;;2.90;2.60;;;20.70;55.30;;;;;;5040832;28;20130;-62
2023/06/15 09:56:11;;;;;;;4.45;3.03;;;20.70;55.70;;;;;;5052403;28;20685;-62
2023/06/15 09:58:59;;;;;;;3.83;2.97;;;20.80;55.00;;;;;;5044452;28;20123;-62
2023/06/15 10:01:28;;;;;;;4.72;3.40;;;20.80;54.80;;;;;;5049691;28;20057;-63
2023/06/15 10:03:57;;;;;;;2.65;2.45;;;20.80;54.70;;;;;;5046117;28;20052;-62
2023/06/15 10:06:26;;;;;;;5.35;2.40;;;20.90;54.90;;;;;;5043713;28;20990;-63
2023/06/15 10:08:59;;;;;;;6.60;2.75;;;20.90;54.50;;;;;;5047744;28;20049;-63
2023/06/15 10:11:28;;;;;;;3.75;3.15;;;20.90;54.10;;;;;;5046935;28;20489;-64
2023/06/15 10:14:06;;;;;;;2.70;2.50;;;20.90;53.80;;;;;;5049394;28;20322;-64
2023/06/15 10:16:35;;;;;;;2.75;2.47;;;20.90;53.70;;;;;;5047014;28;20413;-64
2023/06/15 10:19:05;;;;;;;2.78;2.55;;;20.90;53.80;;;;;;5043291;28;20049;-64
2023/06/15 10:21:36;;;;;;;;;;;20.90;54.00;;;;;;5078683;28;20045;-64
2023/06/15 10:24:15;;;;;;;4.47;2.60;;;20.90;54.20;;;;;;5045159;28;20425;-63
2023/06/15 10:26:44;;;;;;;3.10;2.65;;;20.90;54.00;;;;;;5047797;28;20049;-71
2023/06/15 10:29:32;;;;;;;5.82;2.63;;;20.90;54.00;;;;;;5042183;28;20055;-64
2023/06/15 10:32:23;;;;;;;3.50;2.85;;;20.90;54.00;;;;;;5049306;28;20048;-64
2023/06/15 10:38:47;;;;;;;3.58;2.60;;;20.90;53.40;;;;;;5048420;28;20053;-64
2023/06/15 10:41:15;;;;;;;3.33;2.92;;;20.90;53.20;;;;;;5043593;28;20041;-63
2023/06/15 10:43:58;;;;;;;3.38;2.90;;;20.80;53.00;;;;;;5041286;28;20081;-65
2023/06/15 10:46:29;;;;;;;5.97;2.85;;;20.80;53.00;;;;;;5044262;28;20055;-65
2023/06/15 10:49:06;;;;;;;5.35;3.00;;;20.80;53.40;;;;;;5046036;28;20053;-63
2023/06/15 10:51:38;;;;;;;5.20;3.00;;;20.80;54.00;;;;;;5039437;28;20053;-64
2023/06/15 10:54:25;;;;;;;7.13;3.22;;;20.70;53.90;;;;;;5038712;28;20053;-64
2023/06/15 10:56:55;;;;;;;3.97;3.00;;;20.80;53.60;;;;;;5038201;28;20049;-63
2023/06/15 10:59:42;;;;;;;;;;;20.80;53.80;;;;;;5060697;28;20047;-63
2023/06/15 11:02:51;;;;;;;3.38;3.03;;;20.70;54.20;;;;;;5046079;28;19920;-64
2023/06/15 11:05:21;;;;;;;7.80;3.47;;;20.70;54.70;;;;;;5069215;28;20410;-63
2023/06/15 11:07:50;;;;;;;4.95;2.95;;;20.70;55.00;;;;;;5041742;28;20435;-65
2023/06/15 11:10:27;;;;;;;5.18;3.17;;;20.70;54.80;;;;;;5046022;28;20109;-64
2023/06/15 11:13:04;;;;;;;3.58;3.08;;;20.80;53.90;;;;;;5036639;28;20060;-62
2023/06/15 11:15:33;;;;;;;5.47;3.10;;;20.80;53.90;;;;;;5042288;28;20044;-64
2023/06/15 11:18:03;;;;;;;5.53;2.97;;;20.80;54.10;;;;;;5048270;28;20079;-64
2023/06/15 11:20:59;;;;;;;3.53;2.83;;;20.90;54.30;;;;;;5042866;28;20048;-62
2023/06/15 11:23:33;;;;;;;2.83;2.55;;;20.90;54.50;;;;;;5043775;28;20044;-63
2023/06/15 11:26:01;;;;;;;2.80;2.60;;;20.90;55.20;;;;;;5043521;28;20494;-62
2023/06/15 11:28:33;;;;;;;3.85;3.40;;;20.90;54.80;;;;;;5046116;28;20049;-63
2023/06/15 11:31:08;;;;;;;3.83;3.22;;;20.90;54.30;;;;;;5044565;28;20452;-62
2023/06/15 11:33:37;;;;;;;5.07;2.90;;;20.90;54.10;;;;;;5044316;28;20525;-62
2023/06/15 11:36:07;;;;;;;4.65;3.05;;;21.00;53.70;;;;;;5043257;28;20045;-61
2023/06/15 11:38:35;;;;;;;3.58;2.85;;;21.00;53.90;;;;;;5045705;28;20041;-61
2023/06/15 11:41:10;;;;;;;5.75;2.97;;;21.00;53.50;;;;;;5044468;28;20078;-63
2023/06/15 11:43:42;;;;;;;5.90;2.70;;;21.00;53.50;;;;;;5045193;28;20065;-62
2023/06/15 11:46:12;;;;;;;6.32;3.42;;;21.00;53.00;;;;;;5044257;28;20429;-63
2023/06/15 11:48:40;;;;;;;3.45;2.63;;;21.00;52.90;;;;;;5042853;28;20406;-62
2023/06/15 11:51:11;;;;;;;4.15;3.72;;;21.00;52.90;;;;;;5045617;28;20055;-63
2023/06/15 11:53:40;;;;;;;3.97;3.00;;;21.10;52.70;;;;;;5047997;28;20378;-61
2023/06/15 11:56:12;;;;;;;6.47;3.45;;;21.10;52.80;;;;;;5044507;28;20310;-62
2023/06/15 11:58:41;;;;;;;3.78;2.63;;;21.10;53.20;;;;;;5043429;28;20049;-62
2023/06/15 12:01:11;;;;;;;4.95;2.78;;;21.20;53.60;;;;;;5043997;28;20401;-62
2023/06/15 12:03:43;;;;;;;3.40;2.92;;;21.20;53.60;;;;;;5042377;28;20053;-61
2023/06/15 12:06:29;;;;;;;4.45;3.13;;;21.20;53.60;;;;;;5041264;28;20052;-62
2023/06/15 12:08:57;;;;;;;3.15;2.65;;;21.30;53.40;;;;;;5042007;28;20476;-60
2023/06/15 12:11:28;;;;;;;4.05;2.60;;;21.30;53.20;;;;;;5039129;28;20048;-60
2023/06/15 12:14:07;;;;;;;4.63;2.70;;;21.30;53.20;;;;;;5043013;28;20049;-61
2023/06/15 12:16:35;;;;;;;5.50;2.65;;;21.30;53.00;;;;;;5041566;28;20513;-62
2023/06/15 12:19:04;;;;;;;2.78;2.47;;;21.40;53.10;;;;;;5040692;28;20049;-58
2023/06/15 12:21:33;;;;;;;5.68;2.80;;;21.40;53.40;;;;;;5042875;28;20048;-61
2023/06/15 12:24:01;;;;;;;4.20;2.80;;;21.40;53.50;;;;;;5040949;28;20081;-62
2023/06/15 12:26:32;;;;;;;3.45;2.80;;;21.40;53.30;;;;;;5040990;28;20045;-62
2023/06/15 12:29:01;;;;;;;3.03;2.65;;;21.50;53.00;;;;;;5042666;28;20441;-62
2023/06/15 12:31:33;;;;;;;2.25;2.05;;;21.50;52.70;;;;;;5047198;28;20114;-62
2023/06/15 12:34:08;;;;;;;4.18;2.50;;;21.50;52.90;;;;;;5042438;28;20073;-62
2023/06/15 12:36:39;;;;;;;3.85;2.38;;;21.50;52.90;;;;;;5041733;28;20049;-61
2023/06/15 12:39:11;;;;;;;3.88;2.42;;;21.50;52.70;;;;;;5040953;28;20064;-62
2023/06/15 12:41:42;;;;;;;2.85;2.55;;;21.50;53.00;;;;;;5046663;28;20056;-63
2023/06/15 12:44:11;;;;;;;3.17;2.50;;;21.40;53.40;;;;;;5054221;28;20052;-62
2023/06/15 12:46:39;;;;;;;2.90;2.60;;;21.40;53.80;;;;;;5037818;28;20663;-61
2023/06/15 12:49:08;;;;;;;5.43;2.40;;;21.40;54.00;;;;;;5039170;28;20103;-63
2023/06/15 12:51:36;;;;;;;5.07;3.40;;;21.40;54.00;;;;;;5039159;28;20072;-64
2023/06/15 12:54:05;;;;;;;3.72;2.67;;;21.40;53.40;;;;;;5038715;28;20480;-63
2023/06/15 12:56:34;;;;;;;3.40;2.97;;;21.40;53.30;;;;;;5043514;28;20091;-64
2023/06/15 12:59:03;;;;;;;5.90;3.50;;;21.40;53.40;;;;;;5043372;28;20056;-61
2023/06/15 13:01:32;;;;;;;4.93;3.88;;;21.40;53.30;;;;;;5043897;28;20041;-62
2023/06/15 13:03:59;;;;;;;8.35;3.38;;;21.40;52.60;;;;;;5043094;28;20049;-63